sensor_id;sensor_type;location;lat;lon;timestamp;pressure;altitude;pressure_sealevel;temperature;humidity
19600;BME280;9947;57.722;12.012;2023-08-17T00:01:04;101831.16;;;13.32;100.00
19600;BME280;9947;57.722;12.012;2023-08-17T00:03:37;101839.19;;;13.34;100.00
19600;BME280;9947;57.722;12.012;2023-08-17T00:06:05;101842.56;;;13.37;100.00
19600;BME280;9947;57.722;12.012;2023-08-17T00:08:34;101847.22;;;13.48;100.00
19600;BME280;9947;57.722;12.012;2023-08-17T00:11:02;101847.75;;;13.53;100.00
19600;BME280;9947;57.722;12.012;2023-08-17T00:13:30;101849.94;;;13.61;100.00
19600;BME280;9947;57.722;12.012;2023-08-17T00:15:58;101848.63;;;13.66;100.00
19600;BME280;9947;57.722;12.012;2023-08-17T00:18:28;101845.56;;;13.71;100.00
19600;BME280;9947;57.722;12.012;2023-08-17T00:20:55;101833.59;;;13.73;100.00
19600;BME280;9947;57.722;12.012;2023-08-17T00:23:22;101821.88;;;13.73;100.00
19600;BME280;9947;57.722;12.012;2023-08-17T00:25:50;101828.63;;;13.67;100.00
19600;BME280;9947;57.722;12.012;2023-08-17T00:28:17;101818.19;;;13.61;100.00
19600;BME280;9947;57.722;12.012;2023-08-17T00:30:46;101832.25;;;13.55;100.00
19600;BME280;9947;57.722;12.012;2023-08-17T00:33:13;101827.09;;;13.50;100.00
19600;BME280;9947;57.722;12.012;2023-08-17T00:35:42;101831.13;;;13.45;100.00
19600;BME280;9947;57.722;12.012;2023-08-17T00:38:13;101833.44;;;13.38;100.00
19600;BME280;9947;57.722;12.012;2023-08-17T00:40:41;101831.06;;;13.34;100.00
19600;BME280;9947;57.722;12.012;2023-08-17T00:43:09;101839.41;;;13.31;100.00
19600;BME280;9947;57.722;12.012;2023-08-17T00:45:36;101831.28;;;13.31;100.00
19600;BME280;9947;57.722;12.012;2023-08-17T00:48:06;101833.63;;;13.22;100.00
19600;BME280;9947;57.722;12.012;2023-08-17T00:50:34;101849.38;;;13.17;100.00
19600;BME280;9947;57.722;12.012;2023-08-17T00:53:08;101842.41;;;13.13;100.00
19600;BME280;9947;57.722;12.012;2023-08-17T00:55:41;101851.75;;;13.09;100.00
19600;BME280;9947;57.722;12.012;2023-08-17T00:58:09;101852.81;;;13.07;100.00
19600;BME280;9947;57.722;12.012;2023-08-17T01:00:38;101860.44;;;13.02;100.00
19600;BME280;9947;57.722;12.012;2023-08-17T01:03:06;101851.72;;;12.96;100.00
19600;BME280;9947;57.722;12.012;2023-08-17T01:05:36;101864.50;;;12.94;100.00
19600;BME280;9947;57.722;12.012;2023-08-17T01:08:07;101865.59;;;12.92;100.00
19600;BME280;9947;57.722;12.012;2023-08-17T01:10:41;101874.16;;;12.86;100.00
19600;BME280;9947;57.722;12.012;2023-08-17T01:13:32;101880.78;;;12.82;100.00
19600;BME280;9947;57.722;12.012;2023-08-17T01:16:05;101881.00;;;12.79;100.00
19600;BME280;9947;57.722;12.012;2023-08-17T01:18:37;101889.25;;;12.77;100.00
19600;BME280;9947;57.722;12.012;2023-08-17T01:21:08;101891.19;;;12.75;100.00
19600;BME280;9947;57.722;12.012;2023-08-17T01:23:39;101899.41;;;12.74;100.00
19600;BME280;9947;57.722;12.012;2023-08-17T01:26:06;101912.50;;;12.67;100.00
19600;BME280;9947;57.722;12.012;2023-08-17T01:28:33;101911.72;;;12.52;100.00
19600;BME280;9947;57.722;12.012;2023-08-17T01:31:05;101922.19;;;12.44;100.00
19600;BME280;9947;57.722;12.012;2023-08-17T01:33:37;101921.41;;;12.42;100.00
19600;BME280;9947;57.722;12.012;2023-08-17T01:36:11;101938.09;;;12.36;100.00
19600;BME280;9947;57.722;12.012;2023-08-17T01:38:42;101942.94;;;12.31;100.00
19600;BME280;9947;57.722;12.012;2023-08-17T01:41:11;101953.22;;;12.26;100.00
19600;BME280;9947;57.722;12.012;2023-08-17T01:43:43;101961.63;;;12.21;100.00
19600;BME280;9947;57.722;12.012;2023-08-17T01:46:13;101975.38;;;12.18;100.00
19600;BME280;9947;57.722;12.012;2023-08-17T01:48:42;101962.78;;;12.17;100.00
19600;BME280;9947;57.722;12.012;2023-08-17T01:51:10;101976.53;;;12.14;100.00
19600;BME280;9947;57.722;12.012;2023-08-17T01:53:38;101986.31;;;12.17;100.00
19600;BME280;9947;57.722;12.012;2023-08-17T01:56:06;101998.03;;;12.17;100.00
19600;BME280;9947;57.722;12.012;2023-08-17T01:58:33;102006.38;;;12.14;100.00
19600;BME280;9947;57.722;12.012;2023-08-17T02:01:01;102016.53;;;12.11;100.00
19600;BME280;9947;57.722;12.012;2023-08-17T02:03:30;102005.78;;;12.09;100.00
19600;BME280;9947;57.722;12.012;2023-08-17T02:05:57;102014.03;;;12.08;100.00
19600;BME280;9947;57.722;12.012;2023-08-17T02:08:26;102012.84;;;12.12;100.00
19600;BME280;9947;57.722;12.012;2023-08-17T02:10:53;101999.59;;;12.07;100.00
19600;BME280;9947;57.722;12.012;2023-08-17T02:13:21;101990.13;;;12.00;100.00
19600;BME280;9947;57.722;12.012;2023-08-17T02:15:52;101986.53;;;11.99;100.00
19600;BME280;9947;57.722;12.012;2023-08-17T02:18:20;101989.34;;;11.98;100.00
19600;BME280;9947;57.722;12.012;2023-08-17T02:20:47;101996.75;;;11.94;100.00
19600;BME280;9947;57.722;12.012;2023-08-17T02:23:23;101996.28;;;11.88;100.00
19600;BME280;9947;57.722;12.012;2023-08-17T02:25:53;101989.13;;;11.87;100.00
19600;BME280;9947;57.722;12.012;2023-08-17T02:28:21;101995.81;;;11.81;100.00
19600;BME280;9947;57.722;12.012;2023-08-17T02:30:58;102007.69;;;11.79;100.00
19600;BME280;9947;57.722;12.012;2023-08-17T02:33:31;102004.91;;;11.80;100.00
19600;BME280;9947;57.722;12.012;2023-08-17T02:35:59;102009.84;;;11.88;100.00
19600;BME280;9947;57.722;12.012;2023-08-17T02:38:27;102016.69;;;11.93;100.00
19600;BME280;9947;57.722;12.012;2023-08-17T02:40:54;102019.22;;;11.96;100.00
19600;BME280;9947;57.722;12.012;2023-08-17T02:43:22;102027.19;;;11.99;100.00
19600;BME280;9947;57.722;12.012;2023-08-17T02:45:49;102028.94;;;12.00;100.00
19600;BME280;9947;57.722;12.012;2023-08-17T02:48:16;102024.16;;;11.90;100.00
19600;BME280;9947;57.722;12.012;2023-08-17T02:50:44;102022.13;;;11.79;100.00
19600;BME280;9947;57.722;12.012;2023-08-17T02:53:11;102015.38;;;11.70;100.00
19600;BME280;9947;57.722;12.012;2023-08-17T02:55:40;102015.75;;;11.64;100.00
19600;BME280;9947;57.722;12.012;2023-08-17T02:58:08;102026.19;;;11.56;100.00
19600;BME280;9947;57.722;12.012;2023-08-17T03:03:15;102033.91;;;11.48;100.00
19600;BME280;9947;57.722;12.012;2023-08-17T03:05:44;102027.00;;;11.42;100.00
19600;BME280;9947;57.722;12.012;2023-08-17T03:08:13;102028.53;;;11.32;100.00
19600;BME280;9947;57.722;12.012;2023-08-17T03:10:44;102033.16;;;11.30;100.00
19600;BME280;9947;57.722;12.012;2023-08-17T03:13:11;102028.72;;;11.29;100.00
19600;BME280;9947;57.722;12.012;2023-08-17T03:15:38;102030.81;;;11.24;100.00
19600;BME280;9947;57.722;12.012;2023-08-17T03:18:08;102023.56;;;11.25;100.00
19600;BME280;9947;57.722;12.012;2023-08-17T03:20:54;102024.34;;;11.27;100.00
19600;BME280;9947;57.722;12.012;2023-08-17T03:23:23;102020.97;;;11.23;100.00
19600;BME280;9947;57.722;12.012;2023-08-17T03:25:52;102022.13;;;11.19;100.00
19600;BME280;9947;57.722;12.012;2023-08-17T03:28:21;102026.28;;;11.09;100.00
19600;BME280;9947;57.722;12.012;2023-08-17T03:30:54;102032.94;;;11.03;100.00
19600;BME280;9947;57.722;12.012;2023-08-17T03:33:22;102038.28;;;11.05;100.00
19600;BME280;9947;57.722;12.012;2023-08-17T03:35:53;102044.47;;;11.07;100.00
19600;BME280;9947;57.722;12.012;2023-08-17T03:38:20;102045.50;;;11.04;100.00
19600;BME280;9947;57.722;12.012;2023-08-17T03:40:52;102045.78;;;11.00;100.00
19600;BME280;9947;57.722;12.012;2023-08-17T03:43:42;102058.81;;;10.93;100.00
19600;BME280;9947;57.722;12.012;2023-08-17T03:46:11;102049.72;;;10.94;100.00
19600;BME280;9947;57.722;12.012;2023-08-17T03:48:40;102051.47;;;10.95;100.00
19600;BME280;9947;57.722;12.012;2023-08-17T03:51:09;102048.03;;;10.92;100.00
19600;BME280;9947;57.722;12.012;2023-08-17T03:53:37;102056.78;;;10.97;100.00
19600;BME280;9947;57.722;12.012;2023-08-17T03:56:04;102050.91;;;10.89;100.00
19600;BME280;9947;57.722;12.012;2023-08-17T03:58:33;102056.16;;;10.92;100.00
19600;BME280;9947;57.722;12.012;2023-08-17T04:01:02;102049.88;;;10.91;100.00
19600;BME280;9947;57.722;12.012;2023-08-17T04:03:33;102058.84;;;10.92;100.00
19600;BME280;9947;57.722;12.012;2023-08-17T04:06:05;102066.66;;;10.98;100.00
19600;BME280;9947;57.722;12.012;2023-08-17T04:08:37;102065.50;;;11.02;100.00
19600;BME280;9947;57.722;12.012;2023-08-17T04:11:05;102070.84;;;11.03;100.00
19600;BME280;9947;57.722;12.012;2023-08-17T04:13:33;102068.03;;;11.05;100.00
19600;BME280;9947;57.722;12.012;2023-08-17T04:16:02;102073.19;;;11.09;100.00
19600;BME280;9947;57.722;12.012;2023-08-17T04:18:29;102078.13;;;11.17;100.00
19600;BME280;9947;57.722;12.012;2023-08-17T04:20:56;102084.78;;;11.27;100.00
19600;BME280;9947;57.722;12.012;2023-08-17T04:23:26;102086.34;;;11.31;100.00
19600;BME280;9947;57.722;12.012;2023-08-17T04:25:56;102094.00;;;11.39;100.00
19600;BME280;9947;57.722;12.012;2023-08-17T04:28:24;102090.06;;;11.44;100.00
19600;BME280;9947;57.722;12.012;2023-08-17T04:30:53;102090.69;;;11.50;100.00
19600;BME280;9947;57.722;12.012;2023-08-17T04:33:23;102093.13;;;11.54;100.00
19600;BME280;9947;57.722;12.012;2023-08-17T04:35:53;102087.00;;;11.51;100.00
19600;BME280;9947;57.722;12.012;2023-08-17T04:38:20;102085.50;;;11.61;100.00
19600;BME280;9947;57.722;12.012;2023-08-17T04:40:49;102071.25;;;11.57;100.00
19600;BME280;9947;57.722;12.012;2023-08-17T04:43:22;102067.13;;;11.66;100.00
19600;BME280;9947;57.722;12.012;2023-08-17T04:45:52;102061.00;;;11.78;100.00
19600;BME280;9947;57.722;12.012;2023-08-17T04:48:20;102057.41;;;11.78;100.00
19600;BME280;9947;57.722;12.012;2023-08-17T04:50:48;102041.78;;;11.67;100.00
19600;BME280;9947;57.722;12.012;2023-08-17T04:53:17;102031.72;;;11.69;100.00
19600;BME280;9947;57.722;12.012;2023-08-17T04:55:47;102028.25;;;11.67;100.00
19600;BME280;9947;57.722;12.012;2023-08-17T04:58:15;102028.34;;;11.65;100.00
19600;BME280;9947;57.722;12.012;2023-08-17T05:00:44;102027.78;;;11.74;100.00
19600;BME280;9947;57.722;12.012;2023-08-17T05:03:12;102029.81;;;12.01;100.00
19600;BME280;9947;57.722;12.012;2023-08-17T05:05:41;102032.22;;;12.06;100.00
19600;BME280;9947;57.722;12.012;2023-08-17T05:08:10;102030.28;;;12.08;100.00
19600;BME280;9947;57.722;12.012;2023-08-17T05:10:50;102035.03;;;12.18;100.00
19600;BME280;9947;57.722;12.012;2023-08-17T05:13:22;102036.56;;;12.37;100.00
19600;BME280;9947;57.722;12.012;2023-08-17T05:15:51;102036.59;;;12.51;100.00
19600;BME280;9947;57.722;12.012;2023-08-17T05:18:18;102028.63;;;12.33;100.00
19600;BME280;9947;57.722;12.012;2023-08-17T05:20:46;102038.03;;;12.42;100.00
19600;BME280;9947;57.722;12.012;2023-08-17T05:23:41;102037.06;;;12.43;100.00
19600;BME280;9947;57.722;12.012;2023-08-17T05:26:14;102033.78;;;12.52;100.00
19600;BME280;9947;57.722;12.012;2023-08-17T05:29:03;102033.84;;;12.65;100.00
19600;BME280;9947;57.722;12.012;2023-08-17T05:31:40;102036.53;;;12.79;100.00
19600;BME280;9947;57.722;12.012;2023-08-17T05:34:19;102019.09;;;12.69;100.00
19600;BME280;9947;57.722;12.012;2023-08-17T05:36:48;102019.84;;;12.85;100.00
19600;BME280;9947;57.722;12.012;2023-08-17T05:39:20;102016.25;;;12.85;100.00
19600;BME280;9947;57.722;12.012;2023-08-17T05:41:57;102020.59;;;13.02;100.00
19600;BME280;9947;57.722;12.012;2023-08-17T05:44:37;102020.59;;;13.29;100.00
19600;BME280;9947;57.722;12.012;2023-08-17T05:47:08;102012.06;;;13.47;100.00
19600;BME280;9947;57.722;12.012;2023-08-17T05:49:56;102005.97;;;13.44;100.00
19600;BME280;9947;57.722;12.012;2023-08-17T05:52:41;101989.22;;;13.50;100.00
19600;BME280;9947;57.722;12.012;2023-08-17T05:55:13;101986.88;;;13.71;100.00
19600;BME280;9947;57.722;12.012;2023-08-17T05:57:42;101983.19;;;13.72;100.00
19600;BME280;9947;57.722;12.012;2023-08-17T06:00:15;101979.72;;;13.82;100.00
19600;BME280;9947;57.722;12.012;2023-08-17T06:05:43;101984.59;;;14.03;100.00
19600;BME280;9947;57.722;12.012;2023-08-17T06:08:12;101977.53;;;14.00;100.00
19600;BME280;9947;57.722;12.012;2023-08-17T06:10:41;101978.63;;;13.98;100.00
19600;BME280;9947;57.722;12.012;2023-08-17T06:13:10;101981.00;;;14.15;100.00
19600;BME280;9947;57.722;12.012;2023-08-17T06:15:40;101975.56;;;14.15;100.00
19600;BME280;9947;57.722;12.012;2023-08-17T06:18:07;101986.41;;;14.40;100.00
19600;BME280;9947;57.722;12.012;2023-08-17T06:20:34;101980.84;;;14.42;100.00
19600;BME280;9947;57.722;12.012;2023-08-17T06:23:03;101988.50;;;14.37;100.00
19600;BME280;9947;57.722;12.012;2023-08-17T06:25:32;101987.28;;;14.41;100.00
19600;BME280;9947;57.722;12.012;2023-08-17T06:27:59;101992.31;;;14.47;100.00
19600;BME280;9947;57.722;12.012;2023-08-17T06:30:28;101995.47;;;14.77;100.00
19600;BME280;9947;57.722;12.012;2023-08-17T06:32:58;101993.94;;;14.86;100.00
19600;BME280;9947;57.722;12.012;2023-08-17T06:35:30;101993.47;;;14.92;100.00
19600;BME280;9947;57.722;12.012;2023-08-17T06:37:59;101984.22;;;15.30;100.00
19600;BME280;9947;57.722;12.012;2023-08-17T06:41:04;101990.00;;;15.49;100.00
19600;BME280;9947;57.722;12.012;2023-08-17T06:43:34;101988.78;;;15.18;100.00
19600;BME280;9947;57.722;12.012;2023-08-17T06:46:02;102008.63;;;15.07;100.00
19600;BME280;9947;57.722;12.012;2023-08-17T06:48:30;102007.25;;;15.26;100.00
19600;BME280;9947;57.722;12.012;2023-08-17T06:51:00;102007.09;;;15.16;100.00
19600;BME280;9947;57.722;12.012;2023-08-17T06:53:28;102009.63;;;15.30;100.00
19600;BME280;9947;57.722;12.012;2023-08-17T06:55:57;102015.47;;;15.61;100.00
19600;BME280;9947;57.722;12.012;2023-08-17T06:58:24;102007.09;;;15.75;100.00
19600;BME280;9947;57.722;12.012;2023-08-17T07:00:52;102001.44;;;16.34;100.00
19600;BME280;9947;57.722;12.012;2023-08-17T07:03:20;101994.59;;;16.62;100.00
19600;BME280;9947;57.722;12.012;2023-08-17T07:05:49;101998.84;;;16.21;100.00
19600;BME280;9947;57.722;12.012;2023-08-17T07:08:16;101995.50;;;16.18;100.00
19600;BME280;9947;57.722;12.012;2023-08-17T07:10:45;102000.09;;;16.17;100.00
19600;BME280;9947;57.722;12.012;2023-08-17T07:13:13;102007.00;;;16.10;100.00
19600;BME280;9947;57.722;12.012;2023-08-17T07:15:41;102003.63;;;15.84;100.00
19600;BME280;9947;57.722;12.012;2023-08-17T07:18:08;102005.03;;;16.01;100.00
19600;BME280;9947;57.722;12.012;2023-08-17T07:20:36;101995.13;;;15.89;100.00
19600;BME280;9947;57.722;12.012;2023-08-17T07:23:05;101996.59;;;16.38;100.00
19600;BME280;9947;57.722;12.012;2023-08-17T07:25:32;102000.06;;;16.62;100.00
19600;BME280;9947;57.722;12.012;2023-08-17T07:27:59;101992.88;;;16.39;100.00
19600;BME280;9947;57.722;12.012;2023-08-17T07:30:31;101987.69;;;16.02;100.00
19600;BME280;9947;57.722;12.012;2023-08-17T07:32:58;101995.25;;;16.32;100.00
19600;BME280;9947;57.722;12.012;2023-08-17T07:35:25;101991.91;;;16.40;100.00
19600;BME280;9947;57.722;12.012;2023-08-17T07:37:52;102001.09;;;16.50;100.00
19600;BME280;9947;57.722;12.012;2023-08-17T07:40:22;102005.44;;;16.41;100.00
19600;BME280;9947;57.722;12.012;2023-08-17T07:42:52;102003.31;;;16.45;100.00
19600;BME280;9947;57.722;12.012;2023-08-17T07:45:19;102001.47;;;16.23;100.00
19600;BME280;9947;57.722;12.012;2023-08-17T07:47:48;101998.59;;;16.35;100.00
19600;BME280;9947;57.722;12.012;2023-08-17T07:50:18;102000.06;;;16.62;100.00
19600;BME280;9947;57.722;12.012;2023-08-17T07:52:46;102005.25;;;16.87;100.00
19600;BME280;9947;57.722;12.012;2023-08-17T07:55:14;102012.41;;;16.68;100.00
19600;BME280;9947;57.722;12.012;2023-08-17T07:57:41;102009.63;;;16.56;100.00
19600;BME280;9947;57.722;12.012;2023-08-17T08:00:11;102012.59;;;16.64;100.00
19600;BME280;9947;57.722;12.012;2023-08-17T08:02:40;102010.38;;;16.81;100.00
19600;BME280;9947;57.722;12.012;2023-08-17T08:05:16;102007.78;;;16.79;100.00
19600;BME280;9947;57.722;12.012;2023-08-17T08:07:45;102009.34;;;17.04;100.00
19600;BME280;9947;57.722;12.012;2023-08-17T08:10:12;102009.41;;;17.14;100.00
19600;BME280;9947;57.722;12.012;2023-08-17T08:12:40;102020.94;;;16.74;100.00
19600;BME280;9947;57.722;12.012;2023-08-17T08:15:19;102013.53;;;17.19;100.00
19600;BME280;9947;57.722;12.012;2023-08-17T08:17:50;102009.81;;;17.41;100.00
19600;BME280;9947;57.722;12.012;2023-08-17T08:20:20;102022.66;;;16.98;100.00
19600;BME280;9947;57.722;12.012;2023-08-17T08:22:52;102017.47;;;17.26;100.00
19600;BME280;9947;57.722;12.012;2023-08-17T08:25:21;102015.03;;;17.65;100.00
19600;BME280;9947;57.722;12.012;2023-08-17T08:27:51;102019.25;;;17.69;100.00
19600;BME280;9947;57.722;12.012;2023-08-17T08:30:20;102027.25;;;17.61;100.00
19600;BME280;9947;57.722;12.012;2023-08-17T08:32:47;102022.25;;;17.45;100.00
19600;BME280;9947;57.722;12.012;2023-08-17T08:35:15;102021.53;;;17.32;100.00
19600;BME280;9947;57.722;12.012;2023-08-17T08:37:44;102023.19;;;17.55;100.00
19600;BME280;9947;57.722;12.012;2023-08-17T08:40:12;102025.84;;;17.99;100.00
19600;BME280;9947;57.722;12.012;2023-08-17T08:42:56;102030.81;;;17.94;100.00
19600;BME280;9947;57.722;12.012;2023-08-17T08:45:38;102030.25;;;17.58;100.00
19600;BME280;9947;57.722;12.012;2023-08-17T08:48:16;102033.31;;;17.65;100.00
19600;BME280;9947;57.722;12.012;2023-08-17T08:50:46;102035.19;;;17.32;100.00
19600;BME280;9947;57.722;12.012;2023-08-17T08:53:17;102034.38;;;17.52;100.00
19600;BME280;9947;57.722;12.012;2023-08-17T08:55:57;102036.59;;;17.26;100.00
19600;BME280;9947;57.722;12.012;2023-08-17T08:58:26;102031.66;;;17.41;100.00
19600;BME280;9947;57.722;12.012;2023-08-17T09:00:57;102032.66;;;17.40;100.00
19600;BME280;9947;57.722;12.012;2023-08-17T09:03:27;102036.13;;;17.21;100.00
19600;BME280;9947;57.722;12.012;2023-08-17T09:05:58;102038.13;;;17.19;100.00
19600;BME280;9947;57.722;12.012;2023-08-17T09:08:30;102035.59;;;17.16;100.00
19600;BME280;9947;57.722;12.012;2023-08-17T09:11:08;102041.00;;;17.07;100.00
19600;BME280;9947;57.722;12.012;2023-08-17T09:13:37;102037.34;;;17.17;100.00
19600;BME280;9947;57.722;12.012;2023-08-17T09:16:07;102039.00;;;17.09;100.00
19600;BME280;9947;57.722;12.012;2023-08-17T09:18:36;102041.13;;;17.05;100.00
19600;BME280;9947;57.722;12.012;2023-08-17T09:21:07;102033.25;;;17.23;100.00
19600;BME280;9947;57.722;12.012;2023-08-17T09:23:49;102037.41;;;17.38;100.00
19600;BME280;9947;57.722;12.012;2023-08-17T09:26:19;102040.00;;;17.40;100.00
19600;BME280;9947;57.722;12.012;2023-08-17T09:28:48;102046.97;;;17.44;100.00
19600;BME280;9947;57.722;12.012;2023-08-17T09:31:23;102051.38;;;17.56;100.00
19600;BME280;9947;57.722;12.012;2023-08-17T09:33:53;102046.50;;;17.60;100.00
19600;BME280;9947;57.722;12.012;2023-08-17T09:36:21;102045.38;;;17.62;100.00
19600;BME280;9947;57.722;12.012;2023-08-17T09:38:57;102042.09;;;17.47;100.00
19600;BME280;9947;57.722;12.012;2023-08-17T09:41:26;102049.66;;;17.23;100.00
19600;BME280;9947;57.722;12.012;2023-08-17T09:44:08;102048.06;;;17.41;100.00
19600;BME280;9947;57.722;12.012;2023-08-17T09:46:35;102045.78;;;17.25;100.00
19600;BME280;9947;57.722;12.012;2023-08-17T09:49:06;102050.13;;;17.28;100.00
19600;BME280;9947;57.722;12.012;2023-08-17T09:51:38;102056.59;;;17.27;100.00
19600;BME280;9947;57.722;12.012;2023-08-17T09:54:23;102049.50;;;17.56;100.00
19600;BME280;9947;57.722;12.012;2023-08-17T09:56:53;102047.41;;;17.17;100.00
19600;BME280;9947;57.722;12.012;2023-08-17T09:59:23;102043.94;;;17.26;100.00
19600;BME280;9947;57.722;12.012;2023-08-17T10:01:53;102056.06;;;17.33;100.00
19600;BME280;9947;57.722;12.012;2023-08-17T10:04:28;102051.19;;;17.48;100.00
19600;BME280;9947;57.722;12.012;2023-08-17T10:06:59;102047.50;;;17.70;100.00
19600;BME280;9947;57.722;12.012;2023-08-17T10:09:34;102039.75;;;18.16;100.00
19600;BME280;9947;57.722;12.012;2023-08-17T10:12:10;102041.44;;;18.08;100.00
19600;BME280;9947;57.722;12.012;2023-08-17T10:14:45;102046.44;;;17.82;100.00
19600;BME280;9947;57.722;12.012;2023-08-17T10:17:22;102046.09;;;18.17;100.00
19600;BME280;9947;57.722;12.012;2023-08-17T10:19:59;102045.25;;;18.77;100.00
19600;BME280;9947;57.722;12.012;2023-08-17T10:22:33;102044.47;;;19.25;100.00
19600;BME280;9947;57.722;12.012;2023-08-17T10:25:08;102045.34;;;18.66;100.00
19600;BME280;9947;57.722;12.012;2023-08-17T10:28:02;102050.25;;;19.03;100.00
19600;BME280;9947;57.722;12.012;2023-08-17T10:30:45;102041.59;;;18.67;100.00
19600;BME280;9947;57.722;12.012;2023-08-17T10:33:14;102043.06;;;18.71;100.00
19600;BME280;9947;57.722;12.012;2023-08-17T10:35:44;102051.13;;;18.73;100.00
19600;BME280;9947;57.722;12.012;2023-08-17T10:38:14;102052.34;;;18.90;100.00
19600;BME280;9947;57.722;12.012;2023-08-17T10:41:10;102043.69;;;18.85;100.00
19600;BME280;9947;57.722;12.012;2023-08-17T10:43:53;102038.41;;;18.62;100.00
19600;BME280;9947;57.722;12.012;2023-08-17T10:46:34;102043.00;;;18.62;100.00
19600;BME280;9947;57.722;12.012;2023-08-17T10:49:05;102035.97;;;18.69;100.00
19600;BME280;9947;57.722;12.012;2023-08-17T10:51:34;102034.03;;;18.90;100.00
19600;BME280;9947;57.722;12.012;2023-08-17T10:54:03;102032.81;;;19.33;100.00
19600;BME280;9947;57.722;12.012;2023-08-17T10:56:33;102035.03;;;19.58;100.00
19600;BME280;9947;57.722;12.012;2023-08-17T10:59:00;102039.66;;;19.58;100.00
19600;BME280;9947;57.722;12.012;2023-08-17T11:01:34;102047.66;;;19.21;100.00
19600;BME280;9947;57.722;12.012;2023-08-17T11:04:15;102040.97;;;18.94;100.00
19600;BME280;9947;57.722;12.012;2023-08-17T11:06:43;102038.22;;;18.54;100.00
19600;BME280;9947;57.722;12.012;2023-08-17T11:09:10;102050.19;;;18.93;100.00
19600;BME280;9947;57.722;12.012;2023-08-17T11:11:40;102046.44;;;18.94;100.00
19600;BME280;9947;57.722;12.012;2023-08-17T11:14:08;102051.31;;;18.81;100.00
19600;BME280;9947;57.722;12.012;2023-08-17T11:16:38;102059.34;;;18.73;100.00
19600;BME280;9947;57.722;12.012;2023-08-17T11:19:08;102060.56;;;18.90;100.00
19600;BME280;9947;57.722;12.012;2023-08-17T11:21:36;102066.31;;;19.27;100.00
19600;BME280;9947;57.722;12.012;2023-08-17T11:24:04;102072.06;;;19.43;100.00
19600;BME280;9947;57.722;12.012;2023-08-17T11:26:37;102069.81;;;19.67;100.00
19600;BME280;9947;57.722;12.012;2023-08-17T11:29:05;102062.38;;;19.10;100.00
19600;BME280;9947;57.722;12.012;2023-08-17T11:31:39;102070.09;;;18.86;100.00
19600;BME280;9947;57.722;12.012;2023-08-17T11:34:07;102072.31;;;19.21;100.00
19600;BME280;9947;57.722;12.012;2023-08-17T11:36:34;102073.00;;;19.63;100.00
19600;BME280;9947;57.722;12.012;2023-08-17T11:39:02;102071.19;;;19.23;100.00
19600;BME280;9947;57.722;12.012;2023-08-17T11:41:34;102075.25;;;19.29;100.00
19600;BME280;9947;57.722;12.012;2023-08-17T11:44:02;102072.94;;;19.44;100.00
19600;BME280;9947;57.722;12.012;2023-08-17T11:46:38;102065.63;;;19.54;100.00
19600;BME280;9947;57.722;12.012;2023-08-17T11:49:05;102066.78;;;19.70;100.00
19600;BME280;9947;57.722;12.012;2023-08-17T11:51:34;102063.88;;;19.91;100.00
19600;BME280;9947;57.722;12.012;2023-08-17T11:54:02;102064.47;;;19.66;100.00
19600;BME280;9947;57.722;12.012;2023-08-17T11:56:37;102064.59;;;19.74;100.00
19600;BME280;9947;57.722;12.012;2023-08-17T11:59:30;102061.97;;;19.34;100.00
19600;BME280;9947;57.722;12.012;2023-08-17T12:02:02;102066.63;;;19.72;100.00
19600;BME280;9947;57.722;12.012;2023-08-17T12:04:33;102068.66;;;19.70;100.00
19600;BME280;9947;57.722;12.012;2023-08-17T12:07:00;102071.22;;;19.33;100.00
19600;BME280;9947;57.722;12.012;2023-08-17T12:09:30;102074.97;;;19.41;100.00
19600;BME280;9947;57.722;12.012;2023-08-17T12:12:00;102072.94;;;19.34;100.00
19600;BME280;9947;57.722;12.012;2023-08-17T12:14:28;102072.69;;;18.87;100.00
19600;BME280;9947;57.722;12.012;2023-08-17T12:16:55;102069.81;;;18.89;100.00
19600;BME280;9947;57.722;12.012;2023-08-17T12:19:25;102065.69;;;18.73;100.00
19600;BME280;9947;57.722;12.012;2023-08-17T12:21:53;102084.00;;;18.73;100.00
19600;BME280;9947;57.722;12.012;2023-08-17T12:24:23;102076.41;;;18.76;100.00
19600;BME280;9947;57.722;12.012;2023-08-17T12:26:51;102077.28;;;18.56;100.00
19600;BME280;9947;57.722;12.012;2023-08-17T12:29:19;102081.16;;;18.74;100.00
19600;BME280;9947;57.722;12.012;2023-08-17T12:31:51;102075.63;;;18.65;100.00
19600;BME280;9947;57.722;12.012;2023-08-17T12:34:21;102065.06;;;18.60;100.00
19600;BME280;9947;57.722;12.012;2023-08-17T12:36:50;102070.69;;;18.38;100.00
19600;BME280;9947;57.722;12.012;2023-08-17T12:39:18;102058.56;;;18.92;100.00
19600;BME280;9947;57.722;12.012;2023-08-17T12:41:46;102069.53;;;18.92;100.00
19600;BME280;9947;57.722;12.012;2023-08-17T12:44:13;102067.38;;;19.64;100.00
19600;BME280;9947;57.722;12.012;2023-08-17T12:46:42;102069.00;;;19.17;100.00
19600;BME280;9947;57.722;12.012;2023-08-17T12:49:11;102075.50;;;19.16;100.00
19600;BME280;9947;57.722;12.012;2023-08-17T12:52:01;102069.09;;;18.96;100.00
19600;BME280;9947;57.722;12.012;2023-08-17T12:54:44;102072.81;;;19.35;100.00
19600;BME280;9947;57.722;12.012;2023-08-17T12:57:11;102069.09;;;19.56;100.00
19600;BME280;9947;57.722;12.012;2023-08-17T12:59:40;102075.09;;;19.30;100.00
19600;BME280;9947;57.722;12.012;2023-08-17T13:02:10;102070.50;;;19.50;100.00
19600;BME280;9947;57.722;12.012;2023-08-17T13:04:38;102076.22;;;19.08;100.00